sensor_id;sensor_type;location;lat;lon;timestamp;pressure;altitude;pressure_sealevel;temperature;humidity
73941;BME280;62294;48.554;10.202;2023-06-22T00:00:11;90913.50;;;18.18;100.00
73941;BME280;62294;48.554;10.202;2023-06-22T00:02:38;90885.44;;;18.19;100.00
73941;BME280;62294;48.554;10.202;2023-06-22T00:05:06;90863.56;;;18.21;100.00
73941;BME280;62294;48.554;10.202;2023-06-22T00:07:33;90859.38;;;18.13;100.00
73941;BME280;62294;48.554;10.202;2023-06-22T00:09:59;90866.34;;;18.00;100.00
73941;BME280;62294;48.554;10.202;2023-06-22T00:12:26;90847.53;;;17.96;100.00
73941;BME280;62294;48.554;10.202;2023-06-22T00:14:52;90848.34;;;17.93;100.00
73941;BME280;62294;48.554;10.202;2023-06-22T00:17:19;90809.97;;;17.89;100.00
73941;BME280;62294;48.554;10.202;2023-06-22T00:19:48;90807.34;;;17.79;100.00
73941;BME280;62294;48.554;10.202;2023-06-22T00:22:19;90822.34;;;17.73;100.00
73941;BME280;62294;48.554;10.202;2023-06-22T00:24:56;90798.53;;;17.71;100.00
73941;BME280;62294;48.554;10.202;2023-06-22T00:27:22;90770.91;;;17.78;100.00
73941;BME280;62294;48.554;10.202;2023-06-22T00:29:49;90733.72;;;17.80;100.00
73941;BME280;62294;48.554;10.202;2023-06-22T00:32:16;90730.25;;;17.79;100.00
73941;BME280;62294;48.554;10.202;2023-06-22T00:34:43;90748.00;;;17.59;100.00
73941;BME280;62294;48.554;10.202;2023-06-22T00:37:09;90750.66;;;17.55;100.00
73941;BME280;62294;48.554;10.202;2023-06-22T00:39:37;90734.97;;;17.54;100.00
73941;BME280;62294;48.554;10.202;2023-06-22T00:42:04;90728.06;;;17.46;100.00
73941;BME280;62294;48.554;10.202;2023-06-22T00:44:30;90724.28;;;17.29;100.00
73941;BME280;62294;48.554;10.202;2023-06-22T00:46:57;90734.66;;;17.20;100.00
73941;BME280;62294;48.554;10.202;2023-06-22T00:49:26;90710.53;;;17.20;100.00
73941;BME280;62294;48.554;10.202;2023-06-22T00:51:52;90687.47;;;17.30;100.00
73941;BME280;62294;48.554;10.202;2023-06-22T00:54:19;90651.44;;;17.38;100.00
73941;BME280;62294;48.554;10.202;2023-06-22T00:56:53;90649.19;;;17.26;100.00
73941;BME280;62294;48.554;10.202;2023-06-22T00:59:21;90654.19;;;17.17;100.00
73941;BME280;62294;48.554;10.202;2023-06-22T01:01:48;90647.31;;;17.16;100.00
73941;BME280;62294;48.554;10.202;2023-06-22T01:04:15;90641.56;;;17.17;100.00
73941;BME280;62294;48.554;10.202;2023-06-22T01:06:54;90622.78;;;17.14;100.00
73941;BME280;62294;48.554;10.202;2023-06-22T01:09:29;90610.19;;;17.11;100.00
73941;BME280;62294;48.554;10.202;2023-06-22T01:12:04;90589.84;;;17.17;100.00
73941;BME280;62294;48.554;10.202;2023-06-22T01:14:42;90572.19;;;17.19;100.00
73941;BME280;62294;48.554;10.202;2023-06-22T01:17:11;90554.19;;;17.20;100.00
73941;BME280;62294;48.554;10.202;2023-06-22T01:19:48;90525.81;;;17.22;100.00
73941;BME280;62294;48.554;10.202;2023-06-22T01:22:27;90494.38;;;17.23;100.00
73941;BME280;62294;48.554;10.202;2023-06-22T01:25:10;90468.31;;;17.27;100.00
73941;BME280;62294;48.554;10.202;2023-06-22T01:30:09;90364.06;;;17.29;100.00
73941;BME280;62294;48.554;10.202;2023-06-22T01:32:38;90339.19;;;17.25;100.00
73941;BME280;62294;48.554;10.202;2023-06-22T01:35:07;90317.75;;;17.25;100.00
73941;BME280;62294;48.554;10.202;2023-06-22T01:37:36;90290.53;;;17.23;100.00
73941;BME280;62294;48.554;10.202;2023-06-22T01:40:04;90266.41;;;17.23;100.00
73941;BME280;62294;48.554;10.202;2023-06-22T01:42:32;90259.16;;;17.20;100.00
73941;BME280;62294;48.554;10.202;2023-06-22T01:44:59;90248.44;;;17.20;100.00
73941;BME280;62294;48.554;10.202;2023-06-22T01:47:27;90222.34;;;17.24;100.00
73941;BME280;62294;48.554;10.202;2023-06-22T01:49:54;90218.09;;;17.26;100.00
73941;BME280;62294;48.554;10.202;2023-06-22T01:52:21;90202.44;;;17.21;100.00
73941;BME280;62294;48.554;10.202;2023-06-22T01:54:48;90220.13;;;17.15;100.00
73941;BME280;62294;48.554;10.202;2023-06-22T01:57:15;90222.47;;;17.10;100.00
73941;BME280;62294;48.554;10.202;2023-06-22T02:00:03;90217.84;;;17.14;100.00
73941;BME280;62294;48.554;10.202;2023-06-22T02:02:43;90224.81;;;17.08;100.00
73941;BME280;62294;48.554;10.202;2023-06-22T02:05:16;90251.75;;;16.93;100.00
73941;BME280;62294;48.554;10.202;2023-06-22T02:07:49;90254.06;;;16.91;100.00
73941;BME280;62294;48.554;10.202;2023-06-22T02:10:20;90238.72;;;16.95;100.00
73941;BME280;62294;48.554;10.202;2023-06-22T02:12:48;90242.50;;;16.98;100.00
73941;BME280;62294;48.554;10.202;2023-06-22T02:15:16;90227.19;;;16.98;100.00
73941;BME280;62294;48.554;10.202;2023-06-22T02:17:43;90224.50;;;16.98;100.00
73941;BME280;62294;48.554;10.202;2023-06-22T02:20:12;90237.97;;;16.95;100.00
73941;BME280;62294;48.554;10.202;2023-06-22T02:22:39;90240.66;;;16.91;100.00
73941;BME280;62294;48.554;10.202;2023-06-22T02:25:07;90231.47;;;16.92;100.00
73941;BME280;62294;48.554;10.202;2023-06-22T02:27:33;90231.84;;;16.94;100.00
73941;BME280;62294;48.554;10.202;2023-06-22T02:30:00;90215.75;;;16.94;100.00
73941;BME280;62294;48.554;10.202;2023-06-22T02:32:28;90221.50;;;16.93;100.00
73941;BME280;62294;48.554;10.202;2023-06-22T02:34:55;90223.44;;;16.92;100.00
73941;BME280;62294;48.554;10.202;2023-06-22T02:37:21;90224.22;;;16.89;100.00
73941;BME280;62294;48.554;10.202;2023-06-22T02:39:52;90225.00;;;16.86;100.00
73941;BME280;62294;48.554;10.202;2023-06-22T02:42:18;90231.53;;;16.85;100.00
73941;BME280;62294;48.554;10.202;2023-06-22T02:44:47;90231.19;;;16.80;100.00
73941;BME280;62294;48.554;10.202;2023-06-22T02:47:15;90253.88;;;16.72;100.00
73941;BME280;62294;48.554;10.202;2023-06-22T02:49:41;90275.03;;;16.59;100.00
73941;BME280;62294;48.554;10.202;2023-06-22T02:52:08;90283.47;;;16.54;100.00
73941;BME280;62294;48.554;10.202;2023-06-22T02:54:35;90294.22;;;16.47;100.00
73941;BME280;62294;48.554;10.202;2023-06-22T02:57:01;90287.31;;;16.53;100.00
73941;BME280;62294;48.554;10.202;2023-06-22T02:59:29;90277.34;;;16.57;100.00
73941;BME280;62294;48.554;10.202;2023-06-22T03:01:59;90291.91;;;16.53;100.00
73941;BME280;62294;48.554;10.202;2023-06-22T03:04:25;90289.25;;;16.49;100.00
73941;BME280;62294;48.554;10.202;2023-06-22T03:06:52;90276.59;;;16.53;100.00
73941;BME280;62294;48.554;10.202;2023-06-22T03:09:20;90270.91;;;16.44;100.00
73941;BME280;62294;48.554;10.202;2023-06-22T03:11:46;90267.47;;;16.44;100.00
73941;BME280;62294;48.554;10.202;2023-06-22T03:14:13;90247.19;;;16.43;100.00
73941;BME280;62294;48.554;10.202;2023-06-22T03:16:39;90241.41;;;16.48;100.00
73941;BME280;62294;48.554;10.202;2023-06-22T03:19:07;90213.03;;;16.57;100.00
73941;BME280;62294;48.554;10.202;2023-06-22T03:21:33;90194.25;;;16.61;100.00
73941;BME280;62294;48.554;10.202;2023-06-22T03:24:00;90170.50;;;16.63;100.00
73941;BME280;62294;48.554;10.202;2023-06-22T03:26:27;90144.03;;;16.68;100.00
73941;BME280;62294;48.554;10.202;2023-06-22T03:28:53;90134.03;;;16.72;100.00
73941;BME280;62294;48.554;10.202;2023-06-22T03:31:21;90114.47;;;16.75;100.00
73941;BME280;62294;48.554;10.202;2023-06-22T03:33:49;90094.16;;;16.78;100.00
73941;BME280;62294;48.554;10.202;2023-06-22T03:36:19;90097.19;;;16.80;100.00
73941;BME280;62294;48.554;10.202;2023-06-22T03:38:47;90061.47;;;16.90;100.00
73941;BME280;62294;48.554;10.202;2023-06-22T03:41:13;90048.78;;;16.94;100.00
73941;BME280;62294;48.554;10.202;2023-06-22T03:43:40;90022.59;;;17.05;100.00
73941;BME280;62294;48.554;10.202;2023-06-22T03:46:07;90024.56;;;17.01;100.00
73941;BME280;62294;48.554;10.202;2023-06-22T03:48:33;90008.78;;;17.07;100.00
73941;BME280;62294;48.554;10.202;2023-06-22T03:51:01;89993.75;;;17.13;100.00
73941;BME280;62294;48.554;10.202;2023-06-22T03:53:29;89970.69;;;17.19;100.00
73941;BME280;62294;48.554;10.202;2023-06-22T03:55:56;89976.88;;;17.16;100.00
73941;BME280;62294;48.554;10.202;2023-06-22T03:58:22;89974.19;;;17.16;100.00
73941;BME280;62294;48.554;10.202;2023-06-22T04:00:50;90001.19;;;17.01;100.00
73941;BME280;62294;48.554;10.202;2023-06-22T04:03:18;89995.84;;;17.01;100.00
73941;BME280;62294;48.554;10.202;2023-06-22T04:05:46;90003.53;;;16.99;100.00
73941;BME280;62294;48.554;10.202;2023-06-22T04:08:14;89981.22;;;17.06;100.00
73941;BME280;62294;48.554;10.202;2023-06-22T04:10:41;89989.25;;;17.06;100.00
73941;BME280;62294;48.554;10.202;2023-06-22T04:13:07;89973.81;;;17.14;100.00
73941;BME280;62294;48.554;10.202;2023-06-22T04:15:34;89950.31;;;17.25;100.00
73941;BME280;62294;48.554;10.202;2023-06-22T04:18:01;89930.25;;;17.33;100.00
73941;BME280;62294;48.554;10.202;2023-06-22T04:20:27;89922.53;;;17.35;100.00
73941;BME280;62294;48.554;10.202;2023-06-22T04:22:55;89899.31;;;17.48;100.00
73941;BME280;62294;48.554;10.202;2023-06-22T04:25:22;89900.16;;;17.45;100.00
73941;BME280;62294;48.554;10.202;2023-06-22T04:27:48;89879.72;;;17.54;100.00
73941;BME280;62294;48.554;10.202;2023-06-22T04:30:16;89876.59;;;17.56;100.00
73941;BME280;62294;48.554;10.202;2023-06-22T04:32:43;89874.69;;;17.56;100.00
73941;BME280;62294;48.554;10.202;2023-06-22T04:35:10;89863.75;;;17.67;100.00
73941;BME280;62294;48.554;10.202;2023-06-22T04:37:37;89854.00;;;17.77;100.00
73941;BME280;62294;48.554;10.202;2023-06-22T04:40:06;89832.72;;;17.86;100.00
73941;BME280;62294;48.554;10.202;2023-06-22T04:42:34;89845.81;;;17.84;100.00
73941;BME280;62294;48.554;10.202;2023-06-22T04:45:01;89821.78;;;17.96;100.00
73941;BME280;62294;48.554;10.202;2023-06-22T04:47:28;89821.63;;;18.03;100.00
73941;BME280;62294;48.554;10.202;2023-06-22T04:49:54;89794.41;;;18.21;100.00
73941;BME280;62294;48.554;10.202;2023-06-22T04:52:21;89826.03;;;18.13;100.00
73941;BME280;62294;48.554;10.202;2023-06-22T04:54:49;89848.28;;;18.14;100.00
73941;BME280;62294;48.554;10.202;2023-06-22T04:57:17;89820.19;;;18.34;100.00
73941;BME280;62294;48.554;10.202;2023-06-22T04:59:43;89816.09;;;18.50;100.00
73941;BME280;62294;48.554;10.202;2023-06-22T05:02:10;89814.25;;;18.63;100.00
73941;BME280;62294;48.554;10.202;2023-06-22T05:04:37;89828.63;;;18.72;100.00
73941;BME280;62294;48.554;10.202;2023-06-22T05:07:06;89773.75;;;19.18;100.00
73941;BME280;62294;48.554;10.202;2023-06-22T05:09:33;89744.31;;;19.56;100.00
73941;BME280;62294;48.554;10.202;2023-06-22T05:12:02;89746.13;;;19.75;100.00
73941;BME280;62294;48.554;10.202;2023-06-22T05:14:29;89756.19;;;20.00;100.00
73941;BME280;62294;48.554;10.202;2023-06-22T05:16:56;89814.59;;;20.03;100.00
73941;BME280;62294;48.554;10.202;2023-06-22T05:19:25;89873.50;;;20.17;100.00
73941;BME280;62294;48.554;10.202;2023-06-22T05:21:58;89908.41;;;20.49;100.00
73941;BME280;62294;48.554;10.202;2023-06-22T05:24:24;90024.44;;;20.45;100.00
73941;BME280;62294;48.554;10.202;2023-06-22T05:26:50;90069.38;;;20.81;100.00
73941;BME280;62294;48.554;10.202;2023-06-22T05:29:17;90176.38;;;21.00;100.00
73941;BME280;62294;48.554;10.202;2023-06-22T05:31:44;90286.41;;;21.25;100.00
73941;BME280;62294;48.554;10.202;2023-06-22T05:34:10;90294.13;;;22.28;100.00
73941;BME280;62294;48.554;10.202;2023-06-22T05:36:37;90428.91;;;23.00;100.00
73941;BME280;62294;48.554;10.202;2023-06-22T05:39:14;90615.63;;;23.98;100.00
73941;BME280;62294;48.554;10.202;2023-06-22T05:41:41;91038.94;;;24.00;100.00
73941;BME280;62294;48.554;10.202;2023-06-22T05:44:09;91458.63;;;23.66;100.00
73941;BME280;62294;48.554;10.202;2023-06-22T05:46:35;91621.34;;;23.89;100.00
73941;BME280;62294;48.554;10.202;2023-06-22T05:49:02;91796.50;;;24.51;100.00
73941;BME280;62294;48.554;10.202;2023-06-22T05:51:29;92115.72;;;24.41;100.00
73941;BME280;62294;48.554;10.202;2023-06-22T05:53:55;92311.53;;;24.43;100.00
73941;BME280;62294;48.554;10.202;2023-06-22T05:56:22;92386.63;;;24.67;100.00
73941;BME280;62294;48.554;10.202;2023-06-22T05:58:48;92423.53;;;25.37;100.00
73941;BME280;62294;48.554;10.202;2023-06-22T06:01:15;92539.28;;;26.04;100.00
73941;BME280;62294;48.554;10.202;2023-06-22T06:03:42;92892.69;;;26.16;100.00
73941;BME280;62294;48.554;10.202;2023-06-22T06:06:09;93217.78;;;26.15;100.00
73941;BME280;62294;48.554;10.202;2023-06-22T06:08:38;93585.59;;;27.12;100.00
73941;BME280;62294;48.554;10.202;2023-06-22T06:11:04;93875.47;;;27.60;100.00
73941;BME280;62294;48.554;10.202;2023-06-22T06:13:31;94106.22;;;28.31;100.00
73941;BME280;62294;48.554;10.202;2023-06-22T06:15:58;94171.94;;;28.92;100.00
73941;BME280;62294;48.554;10.202;2023-06-22T06:18:25;94420.88;;;28.06;100.00
73941;BME280;62294;48.554;10.202;2023-06-22T06:20:52;94421.25;;;28.35;100.00
73941;BME280;62294;48.554;10.202;2023-06-22T06:23:19;94454.59;;;29.07;100.00
73941;BME280;62294;48.554;10.202;2023-06-22T06:25:46;94569.03;;;29.05;100.00
73941;BME280;62294;48.554;10.202;2023-06-22T06:28:12;94601.94;;;29.38;100.00
73941;BME280;62294;48.554;10.202;2023-06-22T06:30:39;94638.31;;;29.38;100.00
73941;BME280;62294;48.554;10.202;2023-06-22T06:33:08;94704.00;;;29.38;100.00
73941;BME280;62294;48.554;10.202;2023-06-22T06:35:35;94703.16;;;29.08;100.00
73941;BME280;62294;48.554;10.202;2023-06-22T06:38:02;94705.16;;;29.11;100.00
73941;BME280;62294;48.554;10.202;2023-06-22T06:40:29;94623.03;;;29.34;100.00
73941;BME280;62294;48.554;10.202;2023-06-22T06:42:56;94659.75;;;30.76;100.00
73941;BME280;62294;48.554;10.202;2023-06-22T06:45:24;94830.69;;;30.47;100.00
73941;BME280;62294;48.554;10.202;2023-06-22T06:47:51;94780.72;;;30.64;100.00
73941;BME280;62294;48.554;10.202;2023-06-22T06:50:19;94789.31;;;29.70;100.00
73941;BME280;62294;48.554;10.202;2023-06-22T06:52:45;94762.53;;;29.30;100.00
73941;BME280;62294;48.554;10.202;2023-06-22T06:55:12;94718.97;;;29.18;100.00
73941;BME280;62294;48.554;10.202;2023-06-22T06:57:41;94673.78;;;29.05;100.00
73941;BME280;62294;48.554;10.202;2023-06-22T07:00:10;94655.50;;;29.69;100.00
73941;BME280;62294;48.554;10.202;2023-06-22T07:02:42;94765.03;;;30.65;100.00
73941;BME280;62294;48.554;10.202;2023-06-22T07:05:10;94801.63;;;30.39;100.00
73941;BME280;62294;48.554;10.202;2023-06-22T07:07:38;94791.09;;;30.15;100.00
73941;BME280;62294;48.554;10.202;2023-06-22T07:10:05;94924.88;;;30.32;100.00
73941;BME280;62294;48.554;10.202;2023-06-22T07:12:32;95062.59;;;31.04;100.00
73941;BME280;62294;48.554;10.202;2023-06-22T07:15:07;95022.34;;;30.85;100.00
73941;BME280;62294;48.554;10.202;2023-06-22T07:17:36;95025.34;;;30.73;100.00
73941;BME280;62294;48.554;10.202;2023-06-22T07:20:03;95634.34;;;30.73;100.00
73941;BME280;62294;48.554;10.202;2023-06-22T07:22:36;95130.16;;;31.12;100.00
73941;BME280;62294;48.554;10.202;2023-06-22T07:25:03;93958.06;;;29.66;100.00
73941;BME280;62294;48.554;10.202;2023-06-22T07:27:42;93187.75;;;31.07;100.00
73941;BME280;62294;48.554;10.202;2023-06-22T07:30:10;92272.41;;;30.66;100.00
73941;BME280;62294;48.554;10.202;2023-06-22T07:32:37;91910.28;;;31.42;100.00
73941;BME280;62294;48.554;10.202;2023-06-22T07:35:04;91959.06;;;31.04;100.00
73941;BME280;62294;48.554;10.202;2023-06-22T07:37:31;91946.63;;;31.86;100.00
73941;BME280;62294;48.554;10.202;2023-06-22T07:39:59;91789.44;;;32.31;100.00
73941;BME280;62294;48.554;10.202;2023-06-22T07:42:26;91844.06;;;32.19;100.00
73941;BME280;62294;48.554;10.202;2023-06-22T07:44:53;91875.50;;;32.18;100.00
73941;BME280;62294;48.554;10.202;2023-06-22T07:47:20;91914.81;;;31.67;100.00
73941;BME280;62294;48.554;10.202;2023-06-22T07:49:51;91827.94;;;31.11;100.00
73941;BME280;62294;48.554;10.202;2023-06-22T07:52:21;91888.69;;;31.93;100.00
73941;BME280;62294;48.554;10.202;2023-06-22T07:54:48;91853.50;;;32.09;100.00
73941;BME280;62294;48.554;10.202;2023-06-22T07:57:14;92070.97;;;31.65;100.00
73941;BME280;62294;48.554;10.202;2023-06-22T07:59:41;91988.59;;;30.53;100.00
73941;BME280;62294;48.554;10.202;2023-06-22T08:02:07;91883.50;;;30.00;100.00
73941;BME280;62294;48.554;10.202;2023-06-22T08:04:35;91931.78;;;29.81;100.00
73941;BME280;62294;48.554;10.202;2023-06-22T08:07:02;92072.53;;;29.68;100.00
73941;BME280;62294;48.554;10.202;2023-06-22T08:09:31;92068.50;;;31.58;100.00
73941;BME280;62294;48.554;10.202;2023-06-22T08:11:59;92116.63;;;31.37;100.00
73941;BME280;62294;48.554;10.202;2023-06-22T08:14:26;92091.97;;;29.86;100.00
73941;BME280;62294;48.554;10.202;2023-06-22T08:16:53;91772.06;;;30.44;100.00
73941;BME280;62294;48.554;10.202;2023-06-22T08:19:19;92121.84;;;31.57;100.00
73941;BME280;62294;48.554;10.202;2023-06-22T08:21:46;92345.09;;;31.00;100.00
73941;BME280;62294;48.554;10.202;2023-06-22T08:24:13;92584.88;;;32.89;100.00
73941;BME280;62294;48.554;10.202;2023-06-22T08:26:39;92715.94;;;32.00;100.00
73941;BME280;62294;48.554;10.202;2023-06-22T08:29:06;92599.78;;;30.81;100.00
73941;BME280;62294;48.554;10.202;2023-06-22T08:31:33;92731.47;;;31.30;100.00
73941;BME280;62294;48.554;10.202;2023-06-22T08:34:01;92816.91;;;31.80;100.00
73941;BME280;62294;48.554;10.202;2023-06-22T08:36:28;92837.97;;;32.32;100.00
73941;BME280;62294;48.554;10.202;2023-06-22T08:39:03;92794.69;;;30.91;100.00
73941;BME280;62294;48.554;10.202;2023-06-22T08:41:30;92796.44;;;32.13;100.00
73941;BME280;62294;48.554;10.202;2023-06-22T08:43:57;92904.94;;;33.11;100.00
73941;BME280;62294;48.554;10.202;2023-06-22T08:46:23;92845.97;;;33.37;100.00
73941;BME280;62294;48.554;10.202;2023-06-22T08:48:58;93237.22;;;34.86;100.00
73941;BME280;62294;48.554;10.202;2023-06-22T08:51:26;93411.34;;;34.15;100.00
73941;BME280;62294;48.554;10.202;2023-06-22T08:53:53;93448.31;;;34.34;100.00
73941;BME280;62294;48.554;10.202;2023-06-22T08:56:19;93510.69;;;33.92;100.00
73941;BME280;62294;48.554;10.202;2023-06-22T08:58:46;93577.28;;;35.39;100.00
73941;BME280;62294;48.554;10.202;2023-06-22T09:01:12;93488.72;;;32.70;100.00
73941;BME280;62294;48.554;10.202;2023-06-22T09:03:41;93380.81;;;31.74;100.00
73941;BME280;62294;48.554;10.202;2023-06-22T09:06:08;93371.69;;;33.25;100.00
73941;BME280;62294;48.554;10.202;2023-06-22T09:08:40;93408.41;;;34.22;100.00
73941;BME280;62294;48.554;10.202;2023-06-22T09:11:06;93499.75;;;34.72;100.00
73941;BME280;62294;48.554;10.202;2023-06-22T09:13:33;93554.13;;;34.40;100.00
73941;BME280;62294;48.554;10.202;2023-06-22T09:15:59;93456.66;;;34.30;100.00
73941;BME280;62294;48.554;10.202;2023-06-22T09:18:26;93483.53;;;34.10;100.00
73941;BME280;62294;48.554;10.202;2023-06-22T09:20:52;93659.38;;;34.18;100.00
73941;BME280;62294;48.554;10.202;2023-06-22T09:23:20;93681.13;;;33.93;100.00
73941;BME280;62294;48.554;10.202;2023-06-22T09:25:46;93650.56;;;35.27;100.00
73941;BME280;62294;48.554;10.202;2023-06-22T09:28:14;93746.09;;;35.89;100.00
73941;BME280;62294;48.554;10.202;2023-06-22T09:30:43;93649.72;;;33.91;100.00
73941;BME280;62294;48.554;10.202;2023-06-22T09:33:10;93553.22;;;33.75;100.00
73941;BME280;62294;48.554;10.202;2023-06-22T09:35:37;93600.25;;;33.84;100.00
73941;BME280;62294;48.554;10.202;2023-06-22T09:38:03;93599.66;;;34.12;100.00
73941;BME280;62294;48.554;10.202;2023-06-22T09:40:30;93475.16;;;32.83;100.00
73941;BME280;62294;48.554;10.202;2023-06-22T09:42:57;93404.28;;;33.10;100.00
73941;BME280;62294;48.554;10.202;2023-06-22T09:45:24;93489.72;;;33.62;100.00
73941;BME280;62294;48.554;10.202;2023-06-22T09:47:51;93456.44;;;33.89;100.00
73941;BME280;62294;48.554;10.202;2023-06-22T09:50:17;93555.94;;;34.94;100.00
73941;BME280;62294;48.554;10.202;2023-06-22T09:52:44;93588.34;;;33.87;100.00
73941;BME280;62294;48.554;10.202;2023-06-22T09:55:14;93520.13;;;32.73;100.00
73941;BME280;62294;48.554;10.202;2023-06-22T09:57:43;93385.19;;;30.80;100.00
73941;BME280;62294;48.554;10.202;2023-06-22T10:00:10;93379.53;;;30.27;100.00
73941;BME280;62294;48.554;10.202;2023-06-22T10:02:43;92503.25;;;28.95;100.00
73941;BME280;62294;48.554;10.202;2023-06-22T10:05:11;91282.47;;;30.44;100.00
73941;BME280;62294;48.554;10.202;2023-06-22T10:07:39;91419.88;;;32.02;100.00
73941;BME280;62294;48.554;10.202;2023-06-22T10:10:12;92237.59;;;32.23;100.00
73941;BME280;62294;48.554;10.202;2023-06-22T10:12:47;92162.09;;;31.94;100.00
73941;BME280;62294;48.554;10.202;2023-06-22T10:15:15;93042.13;;;33.83;100.00
73941;BME280;62294;48.554;10.202;2023-06-22T10:17:43;93342.72;;;33.88;100.00
73941;BME280;62294;48.554;10.202;2023-06-22T10:20:10;93475.88;;;35.11;100.00
73941;BME280;62294;48.554;10.202;2023-06-22T10:22:44;93411.53;;;32.81;100.00
73941;BME280;62294;48.554;10.202;2023-06-22T10:25:13;93534.41;;;33.30;100.00
73941;BME280;62294;48.554;10.202;2023-06-22T10:27:39;93282.91;;;32.06;100.00
73941;BME280;62294;48.554;10.202;2023-06-22T10:30:10;92741.44;;;30.33;100.00
73941;BME280;62294;48.554;10.202;2023-06-22T10:32:40;92868.63;;;30.74;100.00
73941;BME280;62294;48.554;10.202;2023-06-22T10:35:07;93037.69;;;32.54;100.00
73941;BME280;62294;48.554;10.202;2023-06-22T10:37:35;93170.56;;;31.49;100.00
73941;BME280;62294;48.554;10.202;2023-06-22T10:40:01;93162.63;;;32.53;100.00
73941;BME280;62294;48.554;10.202;2023-06-22T10:42:29;93313.75;;;33.48;100.00
73941;BME280;62294;48.554;10.202;2023-06-22T10:44:55;93630.75;;;33.53;100.00
73941;BME280;62294;48.554;10.202;2023-06-22T10:47:22;93376.06;;;32.44;100.00
73941;BME280;62294;48.554;10.202;2023-06-22T10:49:48;93642.00;;;34.57;100.00
73941;BME280;62294;48.554;10.202;2023-06-22T10:52:15;93920.50;;;37.17;100.00
73941;BME280;62294;48.554;10.202;2023-06-22T10:54:41;93849.63;;;34.61;100.00
73941;BME280;62294;48.554;10.202;2023-06-22T10:57:08;93983.78;;;36.09;100.00
73941;BME280;62294;48.554;10.202;2023-06-22T10:59:35;94189.25;;;36.97;100.00
73941;BME280;62294;48.554;10.202;2023-06-22T11:02:01;94329.25;;;36.19;100.00
73941;BME280;62294;48.554;10.202;2023-06-22T11:04:29;94111.47;;;33.62;100.00
73941;BME280;62294;48.554;10.202;2023-06-22T11:06:55;94110.97;;;32.51;100.00
73941;BME280;62294;48.554;10.202;2023-06-22T11:09:22;94018.41;;;33.12;100.00
73941;BME280;62294;48.554;10.202;2023-06-22T11:11:55;94041.31;;;33.02;100.00
73941;BME280;62294;48.554;10.202;2023-06-22T11:14:22;94432.97;;;33.72;100.00
73941;BME280;62294;48.554;10.202;2023-06-22T11:16:49;94356.84;;;32.61;100.00
73941;BME280;62294;48.554;10.202;2023-06-22T11:19:15;94320.63;;;32.73;100.00
73941;BME280;62294;48.554;10.202;2023-06-22T11:21:42;94575.25;;;34.10;100.00
73941;BME280;62294;48.554;10.202;2023-06-22T11:24:09;94611.75;;;34.32;100.00
73941;BME280;62294;48.554;10.202;2023-06-22T11:26:36;94115.78;;;32.84;100.00
73941;BME280;62294;48.554;10.202;2023-06-22T11:29:03;93930.19;;;32.14;100.00
73941;BME280;62294;48.554;10.202;2023-06-22T11:31:34;93818.06;;;30.93;100.00
73941;BME280;62294;48.554;10.202;2023-06-22T11:34:01;94075.97;;;31.86;100.00
73941;BME280;62294;48.554;10.202;2023-06-22T11:36:29;94200.84;;;31.71;100.00
73941;BME280;62294;48.554;10.202;2023-06-22T11:38:55;94231.91;;;31.26;100.00
73941;BME280;62294;48.554;10.202;2023-06-22T11:41:22;94569.81;;;32.84;100.00
73941;BME280;62294;48.554;10.202;2023-06-22T11:43:49;94690.78;;;32.14;100.00
73941;BME280;62294;48.554;10.202;2023-06-22T11:46:15;94865.97;;;34.02;100.00
73941;BME280;62294;48.554;10.202;2023-06-22T11:48:42;94512.34;;;31.49;100.00
73941;BME280;62294;48.554;10.202;2023-06-22T11:51:09;94808.81;;;34.20;100.00
73941;BME280;62294;48.554;10.202;2023-06-22T11:53:35;94878.94;;;34.19;100.00
73941;BME280;62294;48.554;10.202;2023-06-22T11:56:02;94998.28;;;33.88;100.00
73941;BME280;62294;48.554;10.202;2023-06-22T11:58:28;95072.78;;;34.55;100.00
73941;BME280;62294;48.554;10.202;2023-06-22T12:00:55;94649.59;;;31.35;100.00
73941;BME280;62294;48.554;10.202;2023-06-22T12:03:22;94709.69;;;32.44;100.00
73941;BME280;62294;48.554;10.202;2023-06-22T12:05:50;94612.22;;;32.09;100.00
73941;BME280;62294;48.554;10.202;2023-06-22T12:08:18;94649.03;;;31.84;100.00
73941;BME280;62294;48.554;10.202;2023-06-22T12:10:45;93980.69;;;31.00;100.00
73941;BME280;62294;48.554;10.202;2023-06-22T12:13:12;93920.50;;;30.30;100.00
73941;BME280;62294;48.554;10.202;2023-06-22T12:15:38;93545.53;;;30.21;100.00
73941;BME280;62294;48.554;10.202;2023-06-22T12:18:05;93512.25;;;30.67;100.00
73941;BME280;62294;48.554;10.202;2023-06-22T12:20:32;93645.59;;;31.39;100.00
73941;BME280;62294;48.554;10.202;2023-06-22T12:22:58;94117.53;;;32.02;100.00
73941;BME280;62294;48.554;10.202;2023-06-22T12:25:25;94253.38;;;31.94;100.00
73941;BME280;62294;48.554;10.202;2023-06-22T12:27:52;94397.34;;;32.57;100.00
73941;BME280;62294;48.554;10.202;2023-06-22T12:30:20;94668.75;;;33.73;100.00
73941;BME280;62294;48.554;10.202;2023-06-22T12:32:46;93933.91;;;31.87;100.00
73941;BME280;62294;48.554;10.202;2023-06-22T12:35:13;94034.66;;;32.59;100.00
73941;BME280;62294;48.554;10.202;2023-06-22T12:37:43;94033.63;;;31.84;100.00
73941;BME280;62294;48.554;10.202;2023-06-22T12:40:10;93953.69;;;31.64;100.00
73941;BME280;62294;48.554;10.202;2023-06-22T12:42:37;94382.41;;;32.65;100.00
73941;BME280;62294;48.554;10.202;2023-06-22T12:45:04;94865.06;;;32.85;100.00